sensor_id;sensor_type;location;lat;lon;timestamp;temperature;humidity
64882;HTU21D;51375;44.836;38.672;2023-11-19T00:00:34;11.92;68.55
64882;HTU21D;51375;44.836;38.672;2023-11-19T00:03:00;11.89;68.49
64882;HTU21D;51375;44.836;38.672;2023-11-19T00:05:27;11.87;68.52
64882;HTU21D;51375;44.836;38.672;2023-11-19T00:07:53;11.89;68.56
64882;HTU21D;51375;44.836;38.672;2023-11-19T00:10:19;11.84;68.48
64882;HTU21D;51375;44.836;38.672;2023-11-19T00:12:48;11.82;68.36
64882;HTU21D;51375;44.836;38.672;2023-11-19T00:15:17;11.71;68.68
64882;HTU21D;51375;44.836;38.672;2023-11-19T00:17:47;11.71;68.70
64882;HTU21D;51375;44.836;38.672;2023-11-19T00:20:18;11.63;68.59
64882;HTU21D;51375;44.836;38.672;2023-11-19T00:22:44;11.51;68.96
64882;HTU21D;51375;44.836;38.672;2023-11-19T00:25:13;11.45;69.20
64882;HTU21D;51375;44.836;38.672;2023-11-19T00:27:40;11.41;69.58
64882;HTU21D;51375;44.836;38.672;2023-11-19T00:30:06;11.42;69.61
64882;HTU21D;51375;44.836;38.672;2023-11-19T00:32:33;11.46;69.74
64882;HTU21D;51375;44.836;38.672;2023-11-19T00:35:00;11.46;69.77
64882;HTU21D;51375;44.836;38.672;2023-11-19T00:37:26;11.45;69.88
64882;HTU21D;51375;44.836;38.672;2023-11-19T00:39:52;11.44;70.00
64882;HTU21D;51375;44.836;38.672;2023-11-19T00:42:18;11.36;70.07
64882;HTU21D;51375;44.836;38.672;2023-11-19T00:44:44;11.26;70.44
64882;HTU21D;51375;44.836;38.672;2023-11-19T00:47:12;11.20;70.74
64882;HTU21D;51375;44.836;38.672;2023-11-19T00:49:38;11.17;70.94
64882;HTU21D;51375;44.836;38.672;2023-11-19T00:52:03;11.17;71.00
64882;HTU21D;51375;44.836;38.672;2023-11-19T00:54:29;11.13;71.06
64882;HTU21D;51375;44.836;38.672;2023-11-19T00:56:55;11.07;71.16
64882;HTU21D;51375;44.836;38.672;2023-11-19T00:59:21;11.05;71.23
64882;HTU21D;51375;44.836;38.672;2023-11-19T01:01:47;11.04;71.32
64882;HTU21D;51375;44.836;38.672;2023-11-19T01:04:19;11.07;71.29
64882;HTU21D;51375;44.836;38.672;2023-11-19T01:06:45;11.04;71.19
64882;HTU21D;51375;44.836;38.672;2023-11-19T01:09:11;11.04;71.16
64882;HTU21D;51375;44.836;38.672;2023-11-19T01:11:37;10.99;71.26
64882;HTU21D;51375;44.836;38.672;2023-11-19T01:14:03;10.94;71.45
64882;HTU21D;51375;44.836;38.672;2023-11-19T01:16:29;10.99;71.54
64882;HTU21D;51375;44.836;38.672;2023-11-19T01:18:55;11.04;71.51
64882;HTU21D;51375;44.836;38.672;2023-11-19T01:21:22;11.11;71.42
64882;HTU21D;51375;44.836;38.672;2023-11-19T01:23:47;11.17;71.37
64882;HTU21D;51375;44.836;38.672;2023-11-19T01:26:13;11.16;71.42
64882;HTU21D;51375;44.836;38.672;2023-11-19T01:28:40;11.16;71.55
64882;HTU21D;51375;44.836;38.672;2023-11-19T01:31:15;11.13;71.77
64882;HTU21D;51375;44.836;38.672;2023-11-19T01:33:41;11.14;71.90
64882;HTU21D;51375;44.836;38.672;2023-11-19T01:36:08;10.98;72.40
64882;HTU21D;51375;44.836;38.672;2023-11-19T01:38:37;10.78;73.10
64882;HTU21D;51375;44.836;38.672;2023-11-19T01:41:03;10.72;73.50
64882;HTU21D;51375;44.836;38.672;2023-11-19T01:43:37;10.64;73.83
64882;HTU21D;51375;44.836;38.672;2023-11-19T01:46:05;10.57;74.10
64882;HTU21D;51375;44.836;38.672;2023-11-19T01:48:34;10.53;74.38
64882;HTU21D;51375;44.836;38.672;2023-11-19T01:51:03;10.49;74.66
64882;HTU21D;51375;44.836;38.672;2023-11-19T01:53:30;10.50;74.86
64882;HTU21D;51375;44.836;38.672;2023-11-19T01:55:57;10.48;74.98
64882;HTU21D;51375;44.836;38.672;2023-11-19T01:58:24;10.48;75.05
64882;HTU21D;51375;44.836;38.672;2023-11-19T02:00:50;10.48;75.21
64882;HTU21D;51375;44.836;38.672;2023-11-19T02:03:16;10.48;75.38
64882;HTU21D;51375;44.836;38.672;2023-11-19T02:05:42;10.53;75.36
64882;HTU21D;51375;44.836;38.672;2023-11-19T02:08:08;10.51;75.44
64882;HTU21D;51375;44.836;38.672;2023-11-19T02:10:34;10.50;75.60
64882;HTU21D;51375;44.836;38.672;2023-11-19T02:13:01;10.49;75.70
64882;HTU21D;51375;44.836;38.672;2023-11-19T02:15:28;10.50;75.74
64882;HTU21D;51375;44.836;38.672;2023-11-19T02:17:54;10.45;75.89
64882;HTU21D;51375;44.836;38.672;2023-11-19T02:20:20;10.46;75.95
64882;HTU21D;51375;44.836;38.672;2023-11-19T02:22:49;10.46;75.95
64882;HTU21D;51375;44.836;38.672;2023-11-19T02:25:30;10.45;75.92
64882;HTU21D;51375;44.836;38.672;2023-11-19T02:28:02;10.44;76.03
64882;HTU21D;51375;44.836;38.672;2023-11-19T02:30:29;10.44;76.13
64882;HTU21D;51375;44.836;38.672;2023-11-19T02:32:56;10.44;76.21
64882;HTU21D;51375;44.836;38.672;2023-11-19T02:35:24;10.45;76.25
64882;HTU21D;51375;44.836;38.672;2023-11-19T02:37:51;10.45;76.35
64882;HTU21D;51375;44.836;38.672;2023-11-19T02:40:17;10.49;76.31
64882;HTU21D;51375;44.836;38.672;2023-11-19T02:42:44;10.50;76.29
64882;HTU21D;51375;44.836;38.672;2023-11-19T02:45:10;10.52;76.35
64882;HTU21D;51375;44.836;38.672;2023-11-19T02:47:41;10.55;76.31
64882;HTU21D;51375;44.836;38.672;2023-11-19T02:50:12;10.57;76.31
64882;HTU21D;51375;44.836;38.672;2023-11-19T02:52:44;10.55;76.28
64882;HTU21D;51375;44.836;38.672;2023-11-19T02:55:11;10.50;76.51
64882;HTU21D;51375;44.836;38.672;2023-11-19T02:57:41;10.51;76.56
64882;HTU21D;51375;44.836;38.672;2023-11-19T03:00:20;10.52;76.55
64882;HTU21D;51375;44.836;38.672;2023-11-19T03:02:50;10.49;76.62
64882;HTU21D;51375;44.836;38.672;2023-11-19T03:05:31;10.44;76.72
64882;HTU21D;51375;44.836;38.672;2023-11-19T03:07:56;10.41;76.81
64882;HTU21D;51375;44.836;38.672;2023-11-19T03:10:23;10.36;76.92
64882;HTU21D;51375;44.836;38.672;2023-11-19T03:12:49;10.28;77.11
64882;HTU21D;51375;44.836;38.672;2023-11-19T03:15:15;10.26;77.25
64882;HTU21D;51375;44.836;38.672;2023-11-19T03:17:42;10.21;77.45
64882;HTU21D;51375;44.836;38.672;2023-11-19T03:20:10;10.19;77.56
64882;HTU21D;51375;44.836;38.672;2023-11-19T03:22:41;10.13;77.78
64882;HTU21D;51375;44.836;38.672;2023-11-19T03:25:08;10.12;77.92
64882;HTU21D;51375;44.836;38.672;2023-11-19T03:27:38;10.12;77.98
64882;HTU21D;51375;44.836;38.672;2023-11-19T03:30:10;10.18;78.00
64882;HTU21D;51375;44.836;38.672;2023-11-19T03:32:36;10.24;77.84
64882;HTU21D;51375;44.836;38.672;2023-11-19T03:35:04;10.30;77.72
64882;HTU21D;51375;44.836;38.672;2023-11-19T03:37:33;10.33;77.67
64882;HTU21D;51375;44.836;38.672;2023-11-19T03:39:59;10.38;77.45
64882;HTU21D;51375;44.836;38.672;2023-11-19T03:42:27;10.39;77.42
64882;HTU21D;51375;44.836;38.672;2023-11-19T03:44:54;10.35;77.46
64882;HTU21D;51375;44.836;38.672;2023-11-19T03:47:20;10.33;77.53
64882;HTU21D;51375;44.836;38.672;2023-11-19T03:49:51;10.34;77.48
64882;HTU21D;51375;44.836;38.672;2023-11-19T03:52:18;10.33;77.61
64882;HTU21D;51375;44.836;38.672;2023-11-19T03:54:44;10.35;77.59
64882;HTU21D;51375;44.836;38.672;2023-11-19T03:57:12;10.36;77.55
64882;HTU21D;51375;44.836;38.672;2023-11-19T03:59:39;10.37;77.53
64882;HTU21D;51375;44.836;38.672;2023-11-19T04:02:05;10.41;77.44
64882;HTU21D;51375;44.836;38.672;2023-11-19T04:04:32;10.46;77.35
64882;HTU21D;51375;44.836;38.672;2023-11-19T04:07:00;10.51;77.16
64882;HTU21D;51375;44.836;38.672;2023-11-19T04:09:26;10.50;77.18
64882;HTU21D;51375;44.836;38.672;2023-11-19T04:11:52;10.48;77.23
64882;HTU21D;51375;44.836;38.672;2023-11-19T04:14:18;10.51;77.31
64882;HTU21D;51375;44.836;38.672;2023-11-19T04:16:44;10.53;77.24
64882;HTU21D;51375;44.836;38.672;2023-11-19T04:19:11;10.56;77.19
64882;HTU21D;51375;44.836;38.672;2023-11-19T04:21:40;10.58;77.02
64882;HTU21D;51375;44.836;38.672;2023-11-19T04:24:07;10.58;77.12
64882;HTU21D;51375;44.836;38.672;2023-11-19T04:26:33;10.58;77.23
64882;HTU21D;51375;44.836;38.672;2023-11-19T04:28:59;10.65;77.21
64882;HTU21D;51375;44.836;38.672;2023-11-19T04:31:29;10.69;77.02
64882;HTU21D;51375;44.836;38.672;2023-11-19T04:33:58;10.74;76.97
64882;HTU21D;51375;44.836;38.672;2023-11-19T04:36:26;10.79;76.94
64882;HTU21D;51375;44.836;38.672;2023-11-19T04:38:52;10.83;76.84
64882;HTU21D;51375;44.836;38.672;2023-11-19T04:41:18;10.83;76.92
64882;HTU21D;51375;44.836;38.672;2023-11-19T04:43:44;10.85;76.95
64882;HTU21D;51375;44.836;38.672;2023-11-19T04:46:10;10.87;76.94
64882;HTU21D;51375;44.836;38.672;2023-11-19T04:48:36;10.85;77.00
64882;HTU21D;51375;44.836;38.672;2023-11-19T04:51:05;10.85;77.06
64882;HTU21D;51375;44.836;38.672;2023-11-19T04:53:31;10.88;77.01
64882;HTU21D;51375;44.836;38.672;2023-11-19T04:55:57;10.89;77.03
64882;HTU21D;51375;44.836;38.672;2023-11-19T04:58:23;10.86;77.05
64882;HTU21D;51375;44.836;38.672;2023-11-19T05:00:49;10.85;77.05
64882;HTU21D;51375;44.836;38.672;2023-11-19T05:03:15;10.80;77.18
64882;HTU21D;51375;44.836;38.672;2023-11-19T05:05:41;10.77;77.40
64882;HTU21D;51375;44.836;38.672;2023-11-19T05:08:07;10.81;77.38
64882;HTU21D;51375;44.836;38.672;2023-11-19T05:10:33;10.86;77.18
64882;HTU21D;51375;44.836;38.672;2023-11-19T05:12:59;10.82;77.24
64882;HTU21D;51375;44.836;38.672;2023-11-19T05:15:25;10.78;77.35
64882;HTU21D;51375;44.836;38.672;2023-11-19T05:17:51;10.77;77.40
64882;HTU21D;51375;44.836;38.672;2023-11-19T05:20:17;10.73;77.42
64882;HTU21D;51375;44.836;38.672;2023-11-19T05:22:43;10.71;77.61
64882;HTU21D;51375;44.836;38.672;2023-11-19T05:25:09;10.73;77.64
64882;HTU21D;51375;44.836;38.672;2023-11-19T05:27:36;10.74;77.67
64882;HTU21D;51375;44.836;38.672;2023-11-19T05:30:04;10.81;77.53
64882;HTU21D;51375;44.836;38.672;2023-11-19T05:32:33;10.80;77.46
64882;HTU21D;51375;44.836;38.672;2023-11-19T05:34:59;10.75;77.60
64882;HTU21D;51375;44.836;38.672;2023-11-19T05:37:25;10.72;77.68
64882;HTU21D;51375;44.836;38.672;2023-11-19T05:39:51;10.67;77.81
64882;HTU21D;51375;44.836;38.672;2023-11-19T05:42:17;10.64;77.93
64882;HTU21D;51375;44.836;38.672;2023-11-19T05:44:43;10.62;78.10
64882;HTU21D;51375;44.836;38.672;2023-11-19T05:47:09;10.63;78.10
64882;HTU21D;51375;44.836;38.672;2023-11-19T05:49:35;10.62;78.16
64882;HTU21D;51375;44.836;38.672;2023-11-19T05:52:01;10.60;78.15
64882;HTU21D;51375;44.836;38.672;2023-11-19T05:54:29;10.57;78.24
64882;HTU21D;51375;44.836;38.672;2023-11-19T05:56:55;10.58;78.27
64882;HTU21D;51375;44.836;38.672;2023-11-19T05:59:21;10.56;78.27
64882;HTU21D;51375;44.836;38.672;2023-11-19T06:01:48;10.55;78.21
64882;HTU21D;51375;44.836;38.672;2023-11-19T06:04:14;10.50;78.38
64882;HTU21D;51375;44.836;38.672;2023-11-19T06:06:40;10.45;78.42
64882;HTU21D;51375;44.836;38.672;2023-11-19T06:09:06;10.45;78.50
64882;HTU21D;51375;44.836;38.672;2023-11-19T06:11:33;10.45;78.49
64882;HTU21D;51375;44.836;38.672;2023-11-19T06:14:01;10.41;78.67
64882;HTU21D;51375;44.836;38.672;2023-11-19T06:16:28;10.43;78.73
64882;HTU21D;51375;44.836;38.672;2023-11-19T06:18:54;10.45;78.63
64882;HTU21D;51375;44.836;38.672;2023-11-19T06:21:20;10.42;78.65
64882;HTU21D;51375;44.836;38.672;2023-11-19T06:23:46;10.40;78.69
64882;HTU21D;51375;44.836;38.672;2023-11-19T06:26:12;10.39;78.79
64882;HTU21D;51375;44.836;38.672;2023-11-19T06:28:39;10.38;78.75
64882;HTU21D;51375;44.836;38.672;2023-11-19T06:31:05;10.33;78.86
64882;HTU21D;51375;44.836;38.672;2023-11-19T06:33:32;10.33;78.90
64882;HTU21D;51375;44.836;38.672;2023-11-19T06:35:59;10.29;78.84
64882;HTU21D;51375;44.836;38.672;2023-11-19T06:38:25;10.22;79.11
64882;HTU21D;51375;44.836;38.672;2023-11-19T06:40:51;10.26;79.13
64882;HTU21D;51375;44.836;38.672;2023-11-19T06:43:17;10.27;79.08
64882;HTU21D;51375;44.836;38.672;2023-11-19T06:45:43;10.30;79.06
64882;HTU21D;51375;44.836;38.672;2023-11-19T06:48:09;10.33;78.98
64882;HTU21D;51375;44.836;38.672;2023-11-19T06:50:35;10.35;79.00
64882;HTU21D;51375;44.836;38.672;2023-11-19T06:53:01;10.42;78.95
64882;HTU21D;51375;44.836;38.672;2023-11-19T06:55:27;10.50;78.84
64882;HTU21D;51375;44.836;38.672;2023-11-19T06:57:53;10.50;78.73
64882;HTU21D;51375;44.836;38.672;2023-11-19T07:00:19;10.44;78.66
64882;HTU21D;51375;44.836;38.672;2023-11-19T07:02:47;10.33;78.96
64882;HTU21D;51375;44.836;38.672;2023-11-19T07:05:13;10.34;79.17
64882;HTU21D;51375;44.836;38.672;2023-11-19T07:07:39;10.40;79.25
64882;HTU21D;51375;44.836;38.672;2023-11-19T07:10:06;10.51;79.11
64882;HTU21D;51375;44.836;38.672;2023-11-19T07:12:34;10.62;78.92
64882;HTU21D;51375;44.836;38.672;2023-11-19T07:15:02;10.68;78.79
64882;HTU21D;51375;44.836;38.672;2023-11-19T07:17:30;10.72;78.78
64882;HTU21D;51375;44.836;38.672;2023-11-19T07:20:02;10.78;78.69
64882;HTU21D;51375;44.836;38.672;2023-11-19T07:22:28;10.81;78.67
64882;HTU21D;51375;44.836;38.672;2023-11-19T07:24:55;10.85;78.58
64882;HTU21D;51375;44.836;38.672;2023-11-19T07:27:21;10.88;78.65
64882;HTU21D;51375;44.836;38.672;2023-11-19T07:29:49;10.97;78.48
64882;HTU21D;51375;44.836;38.672;2023-11-19T07:32:15;10.98;78.04
64882;HTU21D;51375;44.836;38.672;2023-11-19T07:34:41;10.90;77.93
64882;HTU21D;51375;44.836;38.672;2023-11-19T07:37:07;10.83;77.99
64882;HTU21D;51375;44.836;38.672;2023-11-19T07:39:33;10.74;78.11
64882;HTU21D;51375;44.836;38.672;2023-11-19T07:42:00;10.71;78.46
64882;HTU21D;51375;44.836;38.672;2023-11-19T07:44:26;10.71;78.21
64882;HTU21D;51375;44.836;38.672;2023-11-19T07:50:39;10.65;78.24
64882;HTU21D;51375;44.836;38.672;2023-11-19T07:53:07;10.62;78.37
64882;HTU21D;51375;44.836;38.672;2023-11-19T07:55:33;10.64;78.43
64882;HTU21D;51375;44.836;38.672;2023-11-19T07:57:59;10.73;78.37
64882;HTU21D;51375;44.836;38.672;2023-11-19T08:00:26;10.74;78.00
64882;HTU21D;51375;44.836;38.672;2023-11-19T08:02:52;10.65;78.07
64882;HTU21D;51375;44.836;38.672;2023-11-19T08:05:18;10.63;78.08
64882;HTU21D;51375;44.836;38.672;2023-11-19T08:07:44;10.57;78.08
64882;HTU21D;51375;44.836;38.672;2023-11-19T08:10:10;10.53;78.37
64882;HTU21D;51375;44.836;38.672;2023-11-19T08:12:37;10.57;78.26
64882;HTU21D;51375;44.836;38.672;2023-11-19T08:15:03;10.57;78.21
64882;HTU21D;51375;44.836;38.672;2023-11-19T08:17:30;10.56;78.18
64882;HTU21D;51375;44.836;38.672;2023-11-19T08:19:56;10.55;78.34
64882;HTU21D;51375;44.836;38.672;2023-11-19T08:22:23;10.56;78.44
64882;HTU21D;51375;44.836;38.672;2023-11-19T08:24:49;10.59;78.40
64882;HTU21D;51375;44.836;38.672;2023-11-19T08:27:15;10.58;78.37
64882;HTU21D;51375;44.836;38.672;2023-11-19T08:29:41;10.54;78.62
64882;HTU21D;51375;44.836;38.672;2023-11-19T08:32:07;10.58;78.50
64882;HTU21D;51375;44.836;38.672;2023-11-19T08:34:33;10.58;78.56
64882;HTU21D;51375;44.836;38.672;2023-11-19T08:36:59;10.55;78.49
64882;HTU21D;51375;44.836;38.672;2023-11-19T08:39:25;10.52;78.63
64882;HTU21D;51375;44.836;38.672;2023-11-19T08:41:51;10.52;78.67
64882;HTU21D;51375;44.836;38.672;2023-11-19T08:44:17;10.49;78.72
64882;HTU21D;51375;44.836;38.672;2023-11-19T08:46:49;10.46;78.81
64882;HTU21D;51375;44.836;38.672;2023-11-19T08:49:15;10.46;79.05
64882;HTU21D;51375;44.836;38.672;2023-11-19T08:51:41;10.50;79.15
64882;HTU21D;51375;44.836;38.672;2023-11-19T08:54:07;10.55;79.19
64882;HTU21D;51375;44.836;38.672;2023-11-19T08:56:33;10.60;79.17
64882;HTU21D;51375;44.836;38.672;2023-11-19T08:59:01;10.68;79.14
64882;HTU21D;51375;44.836;38.672;2023-11-19T09:01:27;10.71;79.13
64882;HTU21D;51375;44.836;38.672;2023-11-19T09:03:54;10.78;79.14
64882;HTU21D;51375;44.836;38.672;2023-11-19T09:06:20;10.80;79.14
64882;HTU21D;51375;44.836;38.672;2023-11-19T09:08:46;10.82;79.28
64882;HTU21D;51375;44.836;38.672;2023-11-19T09:11:12;10.90;79.22
64882;HTU21D;51375;44.836;38.672;2023-11-19T09:13:37;10.96;78.90
64882;HTU21D;51375;44.836;38.672;2023-11-19T09:16:04;10.90;78.88
64882;HTU21D;51375;44.836;38.672;2023-11-19T09:18:30;10.81;79.15
64882;HTU21D;51375;44.836;38.672;2023-11-19T09:20:58;10.80;79.30
64882;HTU21D;51375;44.836;38.672;2023-11-19T09:23:24;10.82;79.27
64882;HTU21D;51375;44.836;38.672;2023-11-19T09:25:54;10.77;79.26
64882;HTU21D;51375;44.836;38.672;2023-11-19T09:28:21;10.73;79.52
64882;HTU21D;51375;44.836;38.672;2023-11-19T09:30:47;10.75;79.50
64882;HTU21D;51375;44.836;38.672;2023-11-19T09:33:13;10.74;79.58
64882;HTU21D;51375;44.836;38.672;2023-11-19T09:35:39;10.77;79.47
64882;HTU21D;51375;44.836;38.672;2023-11-19T09:38:05;10.77;79.57
64882;HTU21D;51375;44.836;38.672;2023-11-19T09:40:31;10.77;79.59
64882;HTU21D;51375;44.836;38.672;2023-11-19T09:42:57;10.81;79.62
64882;HTU21D;51375;44.836;38.672;2023-11-19T09:45:27;10.85;79.68
64882;HTU21D;51375;44.836;38.672;2023-11-19T09:47:55;10.92;79.71
64882;HTU21D;51375;44.836;38.672;2023-11-19T09:50:23;10.95;79.74
64882;HTU21D;51375;44.836;38.672;2023-11-19T09:52:49;10.97;79.85
64882;HTU21D;51375;44.836;38.672;2023-11-19T09:55:15;11.05;79.83
64882;HTU21D;51375;44.836;38.672;2023-11-19T09:57:41;11.05;79.84
64882;HTU21D;51375;44.836;38.672;2023-11-19T10:00:10;11.02;80.07
64882;HTU21D;51375;44.836;38.672;2023-11-19T10:02:37;11.04;80.14
64882;HTU21D;51375;44.836;38.672;2023-11-19T10:05:06;11.00;80.30
64882;HTU21D;51375;44.836;38.672;2023-11-19T10:07:33;11.03;80.41
64882;HTU21D;51375;44.836;38.672;2023-11-19T10:10:00;11.07;80.37
64882;HTU21D;51375;44.836;38.672;2023-11-19T10:12:28;11.08;80.27
64882;HTU21D;51375;44.836;38.672;2023-11-19T10:14:56;11.09;80.36
64882;HTU21D;51375;44.836;38.672;2023-11-19T10:17:27;11.12;80.22
64882;HTU21D;51375;44.836;38.672;2023-11-19T10:19:55;11.12;80.20
64882;HTU21D;51375;44.836;38.672;2023-11-19T10:22:22;11.10;80.11
64882;HTU21D;51375;44.836;38.672;2023-11-19T10:24:48;11.00;80.31
64882;HTU21D;51375;44.836;38.672;2023-11-19T10:27:15;10.98;80.54
64882;HTU21D;51375;44.836;38.672;2023-11-19T10:29:45;10.97;80.65
64882;HTU21D;51375;44.836;38.672;2023-11-19T10:32:12;11.03;80.62
64882;HTU21D;51375;44.836;38.672;2023-11-19T10:34:39;11.02;80.61
64882;HTU21D;51375;44.836;38.672;2023-11-19T10:37:06;11.03;80.72
64882;HTU21D;51375;44.836;38.672;2023-11-19T10:39:51;11.02;80.66
64882;HTU21D;51375;44.836;38.672;2023-11-19T10:42:20;11.07;80.75
64882;HTU21D;51375;44.836;38.672;2023-11-19T10:44:46;11.10;80.85
64882;HTU21D;51375;44.836;38.672;2023-11-19T10:47:14;11.18;80.63
64882;HTU21D;51375;44.836;38.672;2023-11-19T10:49:40;11.24;80.55
64882;HTU21D;51375;44.836;38.672;2023-11-19T10:52:08;11.38;80.36
64882;HTU21D;51375;44.836;38.672;2023-11-19T10:54:35;11.45;80.17
64882;HTU21D;51375;44.836;38.672;2023-11-19T10:57:02;11.52;80.04
64882;HTU21D;51375;44.836;38.672;2023-11-19T10:59:31;11.55;79.99
64882;HTU21D;51375;44.836;38.672;2023-11-19T11:02:03;11.59;79.90
64882;HTU21D;51375;44.836;38.672;2023-11-19T11:04:33;11.64;79.78
64882;HTU21D;51375;44.836;38.672;2023-11-19T11:07:05;11.66;79.58
64882;HTU21D;51375;44.836;38.672;2023-11-19T11:09:33;11.57;79.70
64882;HTU21D;51375;44.836;38.672;2023-11-19T11:11:59;11.49;79.76
64882;HTU21D;51375;44.836;38.672;2023-11-19T11:14:25;11.39;79.91
64882;HTU21D;51375;44.836;38.672;2023-11-19T11:16:53;11.31;80.28
64882;HTU21D;51375;44.836;38.672;2023-11-19T11:19:19;11.26;80.37
64882;HTU21D;51375;44.836;38.672;2023-11-19T11:21:53;11.18;80.46
64882;HTU21D;51375;44.836;38.672;2023-11-19T11:27:43;11.10;80.72
64882;HTU21D;51375;44.836;38.672;2023-11-19T11:30:39;11.00;80.93
64882;HTU21D;51375;44.836;38.672;2023-11-19T11:35:53;10.94;81.30
64882;HTU21D;51375;44.836;38.672;2023-11-19T11:38:24;10.92;81.47
64882;HTU21D;51375;44.836;38.672;2023-11-19T11:43:48;10.84;81.85
64882;HTU21D;51375;44.836;38.672;2023-11-19T11:49:06;10.84;82.00
64882;HTU21D;51375;44.836;38.672;2023-11-19T11:57:02;10.75;82.39
64882;HTU21D;51375;44.836;38.672;2023-11-19T11:59:45;10.78;82.45
64882;HTU21D;51375;44.836;38.672;2023-11-19T12:02:13;10.82;82.49
64882;HTU21D;51375;44.836;38.672;2023-11-19T12:04:40;10.80;82.60
64882;HTU21D;51375;44.836;38.672;2023-11-19T12:07:07;10.80;82.68
64882;HTU21D;51375;44.836;38.672;2023-11-19T12:09:36;10.83;82.75
64882;HTU21D;51375;44.836;38.672;2023-11-19T12:20:05;10.94;82.70
64882;HTU21D;51375;44.836;38.672;2023-11-19T12:22:41;10.96;82.65
64882;HTU21D;51375;44.836;38.672;2023-11-19T12:25:09;10.98;82.75
64882;HTU21D;51375;44.836;38.672;2023-11-19T12:27:36;11.00;82.71
64882;HTU21D;51375;44.836;38.672;2023-11-19T12:30:03;11.01;82.69
64882;HTU21D;51375;44.836;38.672;2023-11-19T12:32:44;10.99;82.55
64882;HTU21D;51375;44.836;38.672;2023-11-19T12:35:11;10.99;82.85
64882;HTU21D;51375;44.836;38.672;2023-11-19T12:37:47;11.04;82.68
64882;HTU21D;51375;44.836;38.672;2023-11-19T12:40:20;11.08;82.62
64882;HTU21D;51375;44.836;38.672;2023-11-19T12:42:47;11.10;82.58
64882;HTU21D;51375;44.836;38.672;2023-11-19T12:45:14;11.16;82.58
64882;HTU21D;51375;44.836;38.672;2023-11-19T12:47:42;11.22;82.57
64882;HTU21D;51375;44.836;38.672;2023-11-19T12:50:09;11.29;82.33
64882;HTU21D;51375;44.836;38.672;2023-11-19T12:52:36;11.29;82.41
64882;HTU21D;51375;44.836;38.672;2023-11-19T12:55:26;11.28;82.41
64882;HTU21D;51375;44.836;38.672;2023-11-19T12:57:53;11.30;82.52
64882;HTU21D;51375;44.836;38.672;2023-11-19T13:00:22;11.28;82.51
64882;HTU21D;51375;44.836;38.672;2023-11-19T13:02:52;11.28;82.55
64882;HTU21D;51375;44.836;38.672;2023-11-19T13:05:23;11.29;82.56
64882;HTU21D;51375;44.836;38.672;2023-11-19T13:07:49;11.31;82.58
64882;HTU21D;51375;44.836;38.672;2023-11-19T13:10:15;11.36;82.55
64882;HTU21D;51375;44.836;38.672;2023-11-19T13:12:41;11.39;82.39
64882;HTU21D;51375;44.836;38.672;2023-11-19T13:15:22;11.39;82.27
64882;HTU21D;51375;44.836;38.672;2023-11-19T13:17:49;11.41;82.21
64882;HTU21D;51375;44.836;38.672;2023-11-19T13:20:15;11.42;82.21
64882;HTU21D;51375;44.836;38.672;2023-11-19T13:23:00;11.48;82.11
64882;HTU21D;51375;44.836;38.672;2023-11-19T13:25:27;11.56;81.96
64882;HTU21D;51375;44.836;38.672;2023-11-19T13:27:54;11.61;81.71
64882;HTU21D;51375;44.836;38.672;2023-11-19T13:30:21;11.59;81.43
64882;HTU21D;51375;44.836;38.672;2023-11-19T13:32:48;11.54;81.50
64882;HTU21D;51375;44.836;38.672;2023-11-19T13:35:15;11.47;81.44
64882;HTU21D;51375;44.836;38.672;2023-11-19T13:37:43;11.40;81.46
64882;HTU21D;51375;44.836;38.672;2023-11-19T13:40:09;11.33;81.52
64882;HTU21D;51375;44.836;38.672;2023-11-19T13:42:42;11.25;81.54
64882;HTU21D;51375;44.836;38.672;2023-11-19T13:45:12;11.15;81.70
64882;HTU21D;51375;44.836;38.672;2023-11-19T13:47:43;11.09;81.93
64882;HTU21D;51375;44.836;38.672;2023-11-19T13:50:10;11.04;82.00
64882;HTU21D;51375;44.836;38.672;2023-11-19T13:52:38;11.02;82.10
64882;HTU21D;51375;44.836;38.672;2023-11-19T13:55:08;10.96;82.24
64882;HTU21D;51375;44.836;38.672;2023-11-19T13:57:39;10.93;82.40
64882;HTU21D;51375;44.836;38.672;2023-11-19T14:00:09;10.93;82.57
64882;HTU21D;51375;44.836;38.672;2023-11-19T14:02:52;10.90;82.66
64882;HTU21D;51375;44.836;38.672;2023-11-19T14:05:18;10.89;82.70
64882;HTU21D;51375;44.836;38.672;2023-11-19T14:07:45;10.88;82.75
64882;HTU21D;51375;44.836;38.672;2023-11-19T14:10:14;10.88;82.74
64882;HTU21D;51375;44.836;38.672;2023-11-19T14:12:41;10.87;82.75
64882;HTU21D;51375;44.836;38.672;2023-11-19T14:15:08;10.86;82.67
64882;HTU21D;51375;44.836;38.672;2023-11-19T14:17:43;10.83;82.63
64882;HTU21D;51375;44.836;38.672;2023-11-19T14:20:09;10.80;82.62
64882;HTU21D;51375;44.836;38.672;2023-11-19T14:22:42;10.74;82.72
64882;HTU21D;51375;44.836;38.672;2023-11-19T14:25:09;10.72;82.78
64882;HTU21D;51375;44.836;38.672;2023-11-19T14:27:40;10.69;82.81
64882;HTU21D;51375;44.836;38.672;2023-11-19T14:30:08;10.65;82.98
64882;HTU21D;51375;44.836;38.672;2023-11-19T14:32:38;10.65;82.97
64882;HTU21D;51375;44.836;38.672;2023-11-19T14:35:05;10.62;83.11
64882;HTU21D;51375;44.836;38.672;2023-11-19T14:37:32;10.59;83.16
64882;HTU21D;51375;44.836;38.672;2023-11-19T14:39:58;10.58;83.22
64882;HTU21D;51375;44.836;38.672;2023-11-19T14:42:24;10.57;83.20
64882;HTU21D;51375;44.836;38.672;2023-11-19T14:44:53;10.58;83.15
64882;HTU21D;51375;44.836;38.672;2023-11-19T14:47:20;10.57;83.15
64882;HTU21D;51375;44.836;38.672;2023-11-19T14:49:46;10.57;83.13
64882;HTU21D;51375;44.836;38.672;2023-11-19T14:52:12;10.54;83.11
64882;HTU21D;51375;44.836;38.672;2023-11-19T14:54:38;10.52;83.14
64882;HTU21D;51375;44.836;38.672;2023-11-19T14:57:07;10.51;83.05
64882;HTU21D;51375;44.836;38.672;2023-11-19T14:59:36;10.49;83.07
64882;HTU21D;51375;44.836;38.672;2023-11-19T15:02:03;10.44;83.16
64882;HTU21D;51375;44.836;38.672;2023-11-19T15:04:29;10.42;83.29
64882;HTU21D;51375;44.836;38.672;2023-11-19T15:06:59;10.38;83.45
64882;HTU21D;51375;44.836;38.672;2023-11-19T15:09:25;10.38;83.64
64882;HTU21D;51375;44.836;38.672;2023-11-19T15:11:54;10.37;83.63
64882;HTU21D;51375;44.836;38.672;2023-11-19T15:14:20;10.38;83.65
64882;HTU21D;51375;44.836;38.672;2023-11-19T15:16:47;10.38;83.58
64882;HTU21D;51375;44.836;38.672;2023-11-19T15:19:16;10.38;83.59
64882;HTU21D;51375;44.836;38.672;2023-11-19T15:21:42;10.38;83.65
64882;HTU21D;51375;44.836;38.672;2023-11-19T15:24:08;10.40;83.63
64882;HTU21D;51375;44.836;38.672;2023-11-19T15:26:35;10.43;83.62
64882;HTU21D;51375;44.836;38.672;2023-11-19T15:29:04;10.45;83.61
64882;HTU21D;51375;44.836;38.672;2023-11-19T15:31:31;10.50;83.60
64882;HTU21D;51375;44.836;38.672;2023-11-19T15:33:57;10.56;83.51